Time;durP1;ratioP1;P1;durP2;ratioP2;P2;SDS_P1;SDS_P2;PMS_P1;PMS_P2;Temp;Humidity;BMP_temperature;BMP_pressure;BME280_temperature;BME280_humidity;BME280_pressure;Samples;Min_cycle;Max_cycle;Signal;HPM_P1;HPM_P2
2024/04/08 00:00:56;;;;;;;10.23;4.40;;;19.10;99.90;;;;;;5063346;28;20807;-66
2024/04/08 00:03:23;;;;;;;5.40;4.90;;;19.10;99.90;;;;;;5055068;28;20482;-67
2024/04/08 00:05:49;;;;;;;5.63;3.60;;;19.10;99.90;;;;;;5060836;28;20581;-66
2024/04/08 00:08:16;;;;;;;8.60;4.73;;;19.10;99.90;;;;;;5065655;28;20471;-66
2024/04/08 00:10:42;;;;;;;7.60;3.40;;;19.10;99.90;;;;;;5062075;28;20248;-65
2024/04/08 00:13:09;;;;;;;5.93;3.97;;;19.00;99.90;;;;;;5061394;28;20443;-66
2024/04/08 00:15:35;;;;;;;6.03;3.73;;;19.00;99.90;;;;;;5062784;28;20467;-64
2024/04/08 00:18:04;;;;;;;7.80;4.00;;;19.00;99.90;;;;;;5062728;28;20436;-66
2024/04/08 00:20:30;;;;;;;5.00;3.80;;;19.00;99.90;;;;;;5071865;28;20686;-65
2024/04/08 00:22:57;;;;;;;6.30;3.90;;;19.00;99.90;;;;;;5071927;28;20477;-65
2024/04/08 00:25:23;;;;;;;5.97;4.20;;;19.00;99.90;;;;;;5052754;28;20502;-66
2024/04/08 00:27:50;;;;;;;7.30;3.97;;;19.00;99.90;;;;;;5058318;28;20483;-66
2024/04/08 00:30:16;;;;;;;6.37;4.20;;;19.00;99.90;;;;;;5063072;28;20208;-66
2024/04/08 00:32:43;;;;;;;7.70;3.60;;;18.90;99.90;;;;;;5060243;28;20446;-66
2024/04/08 00:35:10;;;;;;;7.57;3.57;;;18.90;99.90;;;;;;5038362;28;20546;-66
2024/04/08 00:37:37;;;;;;;10.43;4.73;;;18.90;99.90;;;;;;5046522;28;20446;-66
2024/04/08 00:40:04;;;;;;;6.07;3.60;;;18.80;99.90;;;;;;5051591;28;20486;-66
2024/04/08 00:42:31;;;;;;;6.40;3.70;;;18.80;99.90;;;;;;5059714;28;20444;-66
2024/04/08 00:44:57;;;;;;;8.40;4.30;;;18.90;99.90;;;;;;5046425;28;20543;-66
2024/04/08 00:47:27;;;;;;;5.67;3.83;;;18.90;99.90;;;;;;5057525;28;20562;-65
2024/04/08 00:49:53;;;;;;;7.00;4.50;;;18.80;99.90;;;;;;5058131;28;20206;-65
2024/04/08 00:52:21;;;;;;;5.07;3.70;;;18.80;99.90;;;;;;5054268;28;20444;-65
2024/04/08 00:54:47;;;;;;;7.00;4.17;;;18.80;99.90;;;;;;5051651;28;20547;-65
2024/04/08 00:57:15;;;;;;;6.30;3.70;;;18.70;99.90;;;;;;5063135;28;20522;-67
2024/04/08 00:59:43;;;;;;;6.50;3.50;;;18.80;99.90;;;;;;5063609;28;20721;-65
2024/04/08 01:02:09;;;;;;;7.77;3.93;;;18.80;99.90;;;;;;5065412;28;20504;-65
2024/04/08 01:04:35;;;;;;;6.27;3.60;;;18.80;99.90;;;;;;5054290;28;20561;-64
2024/04/08 01:07:03;;;;;;;5.50;3.70;;;18.80;99.90;;;;;;5053248;28;20562;-65
2024/04/08 01:09:30;;;;;;;4.80;3.57;;;18.80;99.90;;;;;;5057774;28;20512;-65
2024/04/08 01:11:58;;;;;;;6.50;4.07;;;18.80;99.90;;;;;;5060290;28;20447;-63
2024/04/08 01:14:24;;;;;;;7.33;4.33;;;18.90;99.90;;;;;;5066269;28;20875;-66
2024/04/08 01:16:51;;;;;;;9.47;4.10;;;18.90;99.90;;;;;;5048068;28;20486;-65
2024/04/08 01:19:22;;;;;;;5.77;3.57;;;18.90;99.90;;;;;;5062243;28;20512;-66
2024/04/08 01:21:51;;;;;;;14.23;6.47;;;18.90;99.90;;;;;;5065886;28;20445;-65
2024/04/08 01:24:19;;;;;;;6.27;4.70;;;18.80;99.90;;;;;;5066393;28;20466;-65
2024/04/08 01:26:46;;;;;;;4.30;3.63;;;18.80;99.90;;;;;;5075170;28;20486;-66
2024/04/08 01:29:11;;;;;;;6.53;4.40;;;18.80;99.90;;;;;;5074653;28;20467;-65
2024/04/08 01:31:38;;;;;;;5.27;3.90;;;18.80;99.90;;;;;;5074884;28;20866;-66
2024/04/08 01:34:04;;;;;;;3.77;3.07;;;18.70;99.90;;;;;;5074863;28;20463;-65
2024/04/08 01:36:31;;;;;;;4.60;3.13;;;18.60;99.90;;;;;;5074604;28;20485;-65
2024/04/08 01:38:57;;;;;;;5.77;3.40;;;18.60;99.90;;;;;;5074338;28;20951;-66
2024/04/08 01:41:26;;;;;;;6.40;3.10;;;18.60;99.90;;;;;;5074406;28;20450;-65
2024/04/08 01:43:51;;;;;;;5.50;3.10;;;18.60;99.90;;;;;;5073698;28;20494;-66
2024/04/08 01:46:19;;;;;;;7.60;4.83;;;18.70;99.90;;;;;;5074651;28;20486;-66
2024/04/08 01:48:45;;;;;;;15.90;6.40;;;18.70;99.90;;;;;;5050769;28;20817;-65
2024/04/08 01:51:12;;;;;;;6.50;4.17;;;18.80;99.90;;;;;;5034319;28;20547;-64
2024/04/08 01:53:38;;;;;;;4.60;3.83;;;18.80;99.90;;;;;;5041787;28;20984;-64
2024/04/08 01:56:05;;;;;;;5.37;3.37;;;18.70;99.90;;;;;;5044060;28;20440;-66
2024/04/08 01:58:32;;;;;;;9.20;3.67;;;18.70;99.90;;;;;;5044070;28;20445;-66
2024/04/08 02:00:59;;;;;;;25.87;14.50;;;18.70;99.90;;;;;;5055055;28;20445;-66
2024/04/08 02:03:28;;;;;;;6.90;5.33;;;18.70;99.90;;;;;;5045516;28;20444;-65
2024/04/08 02:05:55;;;;;;;9.57;5.00;;;18.80;99.90;;;;;;5062593;28;20440;-66
2024/04/08 02:08:21;;;;;;;5.50;4.50;;;18.70;99.90;;;;;;5062468;28;20511;-66
2024/04/08 02:10:49;;;;;;;12.57;4.10;;;18.70;99.90;;;;;;5071005;28;20492;-65
2024/04/08 02:13:15;;;;;;;5.90;3.47;;;18.60;99.90;;;;;;5068568;28;20548;-65
2024/04/08 02:15:44;;;;;;;6.77;3.97;;;18.60;99.90;;;;;;5069925;28;20524;-66
2024/04/08 02:18:09;;;;;;;3.50;3.20;;;18.60;99.90;;;;;;5074303;28;20246;-66
2024/04/08 02:20:39;;;;;;;6.90;5.03;;;18.50;99.90;;;;;;5056373;28;20447;-65
2024/04/08 02:23:06;;;;;;;8.27;3.80;;;18.50;99.90;;;;;;5066709;28;20446;-65
2024/04/08 02:25:42;;;;;;;6.27;3.90;;;18.50;99.90;;;;;;5076868;28;20467;-66
2024/04/08 02:28:08;;;;;;;8.07;4.43;;;18.50;99.90;;;;;;5073697;28;20934;-65
2024/04/08 02:30:37;;;;;;;8.30;4.60;;;18.40;99.90;;;;;;5063203;28;20462;-65
2024/04/08 02:33:05;;;;;;;5.90;4.07;;;18.40;99.90;;;;;;5064060;28;20932;-64
2024/04/08 02:47:50;;;;;;;11.17;7.80;;;18.40;99.90;;;;;;6440513;21;20358;-65
2024/04/08 02:50:18;;;;;;;6.57;4.43;;;18.20;99.90;;;;;;6380651;22;1181543;-63
2024/04/08 02:52:46;;;;;;;9.70;5.07;;;18.20;99.90;;;;;;6434011;22;20313;-64
2024/04/08 02:55:12;;;;;;;4.70;3.80;;;18.20;99.90;;;;;;6432776;22;20462;-64
2024/04/08 02:57:41;;;;;;;5.53;4.17;;;18.20;99.90;;;;;;6433759;22;20466;-63
2024/04/08 03:00:07;;;;;;;5.07;4.67;;;18.30;99.90;;;;;;6433673;22;20458;-64
2024/04/08 03:02:36;;;;;;;4.07;3.67;;;18.30;99.90;;;;;;6433689;22;20511;-64
2024/04/08 03:05:08;;;;;;;5.30;3.83;;;18.30;99.90;;;;;;6434121;22;20522;-65
2024/04/08 03:07:37;;;;;;;6.63;4.67;;;18.30;99.90;;;;;;6434664;22;20462;-65
2024/04/08 03:10:04;;;;;;;10.03;3.67;;;18.30;99.90;;;;;;6433949;22;21113;-65
2024/04/08 03:12:33;;;;;;;5.03;4.47;;;18.20;99.90;;;;;;6434291;22;20466;-64
2024/04/08 03:14:59;;;;;;;7.30;4.23;;;18.30;99.90;;;;;;6433304;22;21035;-64
2024/04/08 03:17:30;;;;;;;8.47;4.37;;;18.30;99.90;;;;;;6433133;22;20458;-64
2024/04/08 03:19:57;;;;;;;4.43;3.60;;;18.30;99.90;;;;;;6432797;22;20511;-64
2024/04/08 03:22:32;;;;;;;6.10;3.77;;;18.30;99.90;;;;;;6433213;22;20454;-64
2024/04/08 03:25:01;;;;;;;8.20;4.43;;;18.30;99.90;;;;;;6432260;22;20471;-64
2024/04/08 03:27:32;;;;;;;7.03;4.60;;;18.20;99.90;;;;;;6433446;22;20778;-64
2024/04/08 03:29:58;;;;;;;8.10;4.20;;;18.20;99.90;;;;;;6432978;22;20463;-64
2024/04/08 03:32:27;;;;;;;8.40;4.63;;;18.20;99.90;;;;;;6433039;22;21005;-64
2024/04/08 03:35:05;;;;;;;5.40;4.00;;;18.20;99.90;;;;;;6357777;22;20538;-64
2024/04/08 03:37:41;;;;;;;12.20;4.00;;;18.20;99.90;;;;;;6285695;22;20594;-65
2024/04/08 03:40:11;;;;;;;7.37;4.30;;;18.20;99.90;;;;;;6285210;22;20455;-64
2024/04/08 03:42:40;;;;;;;7.37;4.97;;;18.10;99.90;;;;;;6286079;22;20459;-65
2024/04/08 03:45:09;;;;;;;8.67;4.27;;;18.10;99.90;;;;;;6285219;22;21042;-64
2024/04/08 03:47:38;;;;;;;8.43;3.90;;;18.10;99.90;;;;;;6279957;22;20516;-65
2024/04/08 03:50:04;;;;;;;6.10;4.70;;;18.10;99.90;;;;;;6278558;22;20762;-64
2024/04/08 03:52:35;;;;;;;7.00;3.30;;;18.10;99.90;;;;;;6278504;22;20463;-65
2024/04/08 03:55:01;;;;;;;9.70;4.20;;;18.10;99.90;;;;;;6277890;22;20520;-65
2024/04/08 03:57:30;;;;;;;6.60;3.90;;;18.20;99.90;;;;;;6278209;22;20467;-65
2024/04/08 03:59:56;;;;;;;5.13;4.20;;;18.10;99.90;;;;;;6278665;22;20503;-65
2024/04/08 04:02:24;;;;;;;3.77;3.40;;;18.10;99.90;;;;;;6278534;22;20459;-64
2024/04/08 04:04:50;;;;;;;9.50;3.50;;;18.10;99.90;;;;;;6277978;22;20471;-65
2024/04/08 04:07:19;;;;;;;5.37;4.37;;;18.10;99.90;;;;;;6279024;22;20519;-65
2024/04/08 04:09:50;;;;;;;4.60;3.90;;;18.10;99.90;;;;;;6278781;22;21016;-64
2024/04/08 04:12:16;;;;;;;10.57;4.03;;;18.10;99.90;;;;;;6278652;22;20519;-65
2024/04/08 04:14:45;;;;;;;8.30;3.87;;;18.10;99.90;;;;;;6277780;22;20471;-65
2024/04/08 04:17:13;;;;;;;5.77;3.60;;;18.10;99.90;;;;;;6278548;22;20768;-65
2024/04/08 04:19:42;;;;;;;4.77;3.70;;;18.10;99.90;;;;;;6278310;22;20542;-65
2024/04/08 04:22:08;;;;;;;5.27;4.30;;;18.10;99.90;;;;;;6278338;22;20526;-65
2024/04/08 04:24:36;;;;;;;8.43;3.33;;;18.10;99.90;;;;;;6277817;22;20515;-66
2024/04/08 04:27:05;;;;;;;5.70;3.47;;;18.00;99.90;;;;;;6278805;22;20498;-65
2024/04/08 04:29:33;;;;;;;9.77;4.70;;;18.00;99.90;;;;;;6278553;22;20523;-64
2024/04/08 04:32:02;;;;;;;6.07;4.27;;;18.00;99.90;;;;;;6278648;22;20507;-65
2024/04/08 04:34:31;;;;;;;10.53;5.93;;;18.00;99.90;;;;;;6277422;22;20907;-67
2024/04/08 04:36:57;;;;;;;3.90;3.30;;;17.90;99.90;;;;;;6278194;22;20512;-65
2024/04/08 04:39:28;;;;;;;7.40;3.50;;;17.90;99.90;;;;;;6278273;22;20577;-64
2024/04/08 04:41:54;;;;;;;7.17;3.90;;;18.00;99.90;;;;;;6278208;22;20792;-64
2024/04/08 04:44:25;;;;;;;5.83;3.60;;;18.00;99.90;;;;;;6279517;22;20479;-65
2024/04/08 04:46:51;;;;;;;9.03;3.20;;;18.00;99.90;;;;;;6280550;22;20515;-65
2024/04/08 04:49:20;;;;;;;9.20;3.47;;;18.00;99.90;;;;;;6280171;22;20512;-65
2024/04/08 04:51:46;;;;;;;10.47;3.80;;;18.00;99.90;;;;;;6278823;22;20508;-65
2024/04/08 04:54:14;;;;;;;10.57;4.20;;;18.00;99.90;;;;;;6277517;22;20965;-65
2024/04/08 04:56:40;;;;;;;5.93;3.67;;;18.00;99.90;;;;;;6278351;22;20455;-66
2024/04/08 04:59:09;;;;;;;5.17;4.20;;;18.00;99.90;;;;;;6277801;22;20549;-64
2024/04/08 05:01:41;;;;;;;7.77;4.97;;;18.10;99.90;;;;;;6278392;22;20467;-68
2024/04/08 05:04:09;;;;;;;5.17;3.50;;;18.10;99.90;;;;;;6277328;22;21138;-65
2024/04/08 05:06:35;;;;;;;7.50;5.67;;;18.10;99.90;;;;;;6277445;22;20515;-66
2024/04/08 05:09:04;;;;;;;9.07;4.40;;;18.00;99.90;;;;;;6277793;22;20471;-65
2024/04/08 05:11:30;;;;;;;7.50;3.83;;;18.00;99.90;;;;;;6277748;22;20456;-64
2024/04/08 05:13:59;;;;;;;5.80;3.83;;;18.10;99.90;;;;;;6277194;22;20537;-65
2024/04/08 05:16:24;;;;;;;7.90;4.57;;;18.10;99.90;;;;;;6278279;22;20467;-65
2024/04/08 05:18:56;;;;;;;5.33;4.60;;;18.10;99.90;;;;;;6278087;22;20949;-66
2024/04/08 05:21:21;;;;;;;6.40;4.37;;;18.10;99.90;;;;;;6277892;22;20518;-64
2024/04/08 05:23:50;;;;;;;5.97;4.80;;;18.10;99.90;;;;;;6277269;22;20471;-65
2024/04/08 05:26:17;;;;;;;6.03;4.90;;;18.10;99.90;;;;;;6277566;22;20455;-65
2024/04/08 05:28:45;;;;;;;6.30;4.40;;;18.10;99.90;;;;;;6277671;22;20782;-66
2024/04/08 05:31:12;;;;;;;7.83;4.90;;;18.10;99.90;;;;;;6277604;22;20467;-65
2024/04/08 05:33:41;;;;;;;6.30;4.20;;;18.10;99.90;;;;;;6277518;22;20479;-66
2024/04/08 05:36:10;;;;;;;6.53;4.87;;;18.10;99.90;;;;;;6277059;22;21281;-64
2024/04/08 05:38:39;;;;;;;6.77;4.37;;;18.10;99.90;;;;;;6277617;22;20508;-65
2024/04/08 05:41:05;;;;;;;10.20;3.90;;;18.10;99.90;;;;;;6277460;22;20826;-65
2024/04/08 05:43:34;;;;;;;14.03;4.93;;;18.10;99.90;;;;;;6277090;22;20464;-65
2024/04/08 05:46:00;;;;;;;8.83;4.33;;;18.10;99.90;;;;;;6277049;22;20456;-66
2024/04/08 05:48:29;;;;;;;8.60;5.77;;;18.10;99.90;;;;;;6277490;22;20807;-65
2024/04/08 05:50:55;;;;;;;5.50;4.60;;;18.20;99.90;;;;;;6277601;22;20507;-66
2024/04/08 05:56:01;;;;;;;9.57;4.40;;;18.10;99.90;;;;;;6230024;22;20871;-64
2024/04/08 05:58:27;;;;;;;7.37;4.43;;;18.20;99.90;;;;;;6229972;23;20575;-65
2024/04/08 06:00:56;;;;;;;10.03;5.20;;;18.20;99.90;;;;;;6229996;23;20583;-67
2024/04/08 06:03:22;;;;;;;7.83;5.10;;;18.20;99.90;;;;;;6229331;22;20456;-65
2024/04/08 06:05:51;;;;;;;5.07;3.90;;;18.20;99.90;;;;;;6229527;23;20521;-65
2024/04/08 06:08:17;;;;;;;5.70;4.10;;;18.20;99.90;;;;;;6229737;23;20461;-65
2024/04/08 06:10:50;;;;;;;6.80;4.83;;;18.20;99.90;;;;;;6229218;23;20562;-65
2024/04/08 06:13:21;;;;;;;9.77;4.50;;;18.30;99.90;;;;;;6229459;22;20275;-65
2024/04/08 06:15:50;;;;;;;6.43;4.90;;;18.30;99.90;;;;;;6229260;23;20506;-67
2024/04/08 06:18:17;;;;;;;7.07;4.63;;;18.40;99.90;;;;;;6230319;23;20453;-65
2024/04/08 06:20:46;;;;;;;7.17;4.50;;;18.50;99.90;;;;;;6230110;23;20800;-65
2024/04/08 06:23:12;;;;;;;10.27;6.53;;;18.60;99.90;;;;;;6230043;23;20461;-66
2024/04/08 06:25:40;;;;;;;7.40;5.47;;;18.70;99.90;;;;;;6228890;22;20807;-65
2024/04/08 06:28:06;;;;;;;7.37;4.63;;;18.80;99.90;;;;;;6228720;23;20266;-66
2024/04/08 06:30:40;;;;;;;11.73;5.07;;;18.90;99.90;;;;;;6228845;23;20839;-66
2024/04/08 06:33:09;;;;;;;6.83;4.60;;;18.90;99.90;;;;;;6229659;23;20473;-65
2024/04/08 06:35:40;;;;;;;9.97;5.17;;;19.00;99.90;;;;;;6227726;22;20539;-66
2024/04/08 06:38:06;;;;;;;9.33;5.50;;;19.00;99.90;;;;;;6229616;23;20872;-66
2024/04/08 06:40:34;;;;;;;8.07;4.57;;;19.00;99.90;;;;;;6229640;23;20779;-66
2024/04/08 06:43:00;;;;;;;8.93;5.30;;;19.00;99.90;;;;;;6229250;23;20517;-64
2024/04/08 06:45:29;;;;;;;6.30;5.30;;;19.10;99.90;;;;;;6229012;22;20469;-67
2024/04/08 06:47:58;;;;;;;5.67;4.20;;;19.10;99.90;;;;;;6229438;23;20513;-65
2024/04/08 06:50:26;;;;;;;8.25;5.10;;;19.20;99.90;;;;;;6225256;23;20423;-66
2024/04/08 06:52:52;;;;;;;5.70;3.90;;;19.30;99.90;;;;;;6227620;23;20223;-63
2024/04/08 06:55:23;;;;;;;9.33;4.80;;;19.40;99.90;;;;;;6227117;22;20477;-66
2024/04/08 06:57:49;;;;;;;10.43;5.63;;;19.50;99.90;;;;;;6227422;23;20970;-66
2024/04/08 07:00:24;;;;;;;7.30;4.00;;;19.70;99.90;;;;;;6228778;23;20461;-65
2024/04/08 07:02:50;;;;;;;6.53;4.50;;;19.80;99.90;;;;;;6229442;23;20704;-65
2024/04/08 07:05:21;;;;;;;10.13;4.53;;;19.80;99.90;;;;;;6230355;22;20469;-66
2024/04/08 07:07:47;;;;;;;9.70;4.57;;;19.80;99.90;;;;;;6229849;23;20506;-64
2024/04/08 07:10:15;;;;;;;10.13;4.70;;;19.70;99.90;;;;;;6229699;23;20460;-64
2024/04/08 07:12:41;;;;;;;9.17;5.07;;;19.70;99.90;;;;;;6230360;23;20228;-64
2024/04/08 07:15:12;;;;;;;10.90;4.97;;;19.80;99.90;;;;;;6228577;22;20529;-65
2024/04/08 07:17:38;;;;;;;8.00;4.80;;;19.80;99.90;;;;;;6230277;23;20785;-67
2024/04/08 07:20:09;;;;;;;8.00;4.53;;;19.80;99.90;;;;;;6230380;23;20523;-67
2024/04/08 07:22:38;;;;;;;6.03;4.50;;;19.90;99.90;;;;;;6233055;23;20472;-65
2024/04/08 07:25:07;;;;;;;6.80;4.30;;;19.90;99.90;;;;;;6232045;22;20480;-68
2024/04/08 07:27:35;;;;;;;7.00;5.10;;;20.00;99.90;;;;;;6232153;23;20476;-64
2024/04/08 07:30:06;;;;;;;8.40;5.37;;;20.10;99.90;;;;;;6231528;23;20550;-65
2024/04/08 07:32:33;;;;;;;6.60;4.93;;;20.20;99.90;;;;;;6230997;23;21010;-65
2024/04/08 07:35:02;;;;;;;5.53;4.40;;;20.30;99.90;;;;;;6229933;22;20842;-65
2024/04/08 07:37:28;;;;;;;10.47;5.70;;;20.40;99.90;;;;;;6230979;23;21038;-66
2024/04/08 07:40:00;;;;;;;7.23;4.73;;;20.50;99.90;;;;;;6230660;23;20577;-66
2024/04/08 07:42:26;;;;;;;6.37;4.80;;;20.70;99.90;;;;;;6230953;23;20517;-64
2024/04/08 07:44:55;;;;;;;7.77;4.70;;;20.70;99.90;;;;;;6229812;22;20551;-67
2024/04/08 07:47:20;;;;;;;12.20;4.80;;;20.90;99.90;;;;;;6230851;23;20460;-67
2024/04/08 07:49:55;;;;;;;6.87;3.93;;;21.00;99.90;;;;;;6230731;23;20463;-68
2024/04/08 07:52:21;;;;;;;11.20;4.60;;;21.10;99.90;;;;;;6230285;23;20508;-67
2024/04/08 07:54:49;;;;;;;6.53;4.40;;;21.30;99.90;;;;;;6230408;22;20469;-65
2024/04/08 07:57:22;;;;;;;7.53;5.53;;;21.30;99.90;;;;;;6229643;23;20509;-67
2024/04/08 07:59:53;;;;;;;8.80;4.57;;;21.40;99.90;;;;;;6230391;23;20838;-66
2024/04/08 08:02:19;;;;;;;5.87;4.80;;;21.60;99.90;;;;;;6230967;23;20520;-66
2024/04/08 08:04:48;;;;;;;11.83;4.60;;;21.80;99.90;;;;;;6229686;22;20508;-66
2024/04/08 08:07:13;;;;;;;13.20;5.07;;;22.00;99.90;;;;;;6228754;23;20464;-68
2024/04/08 08:09:42;;;;;;;6.40;4.80;;;22.10;99.90;;;;;;6230132;23;20762;-66
2024/04/08 08:12:11;;;;;;;5.47;4.00;;;22.10;99.90;;;;;;6229721;23;20514;-65
2024/04/08 08:14:43;;;;;;;5.80;4.80;;;22.00;99.90;;;;;;6228536;22;20473;-63
2024/04/08 08:17:11;;;;;;;6.27;4.40;;;21.90;99.90;;;;;;6229029;23;20465;-63
2024/04/08 08:19:40;;;;;;;6.20;3.77;;;21.70;99.90;;;;;;6230164;23;20517;-67
2024/04/08 08:22:09;;;;;;;6.93;5.53;;;21.50;99.90;;;;;;6230461;23;20498;-66
2024/04/08 08:24:41;;;;;;;9.10;5.80;;;21.30;99.90;;;;;;6229955;22;20545;-64
2024/04/08 08:27:09;;;;;;;9.70;4.63;;;21.40;99.90;;;;;;6230632;23;20499;-68
2024/04/08 08:29:38;;;;;;;7.20;4.30;;;21.40;99.90;;;;;;6228752;23;20461;-65
2024/04/08 08:32:09;;;;;;;6.70;4.13;;;21.50;99.90;;;;;;6227369;23;20971;-67
2024/04/08 08:34:38;;;;;;;8.83;4.07;;;21.50;99.90;;;;;;6228623;22;20477;-66
2024/04/08 08:37:04;;;;;;;8.27;4.57;;;21.60;99.90;;;;;;6228941;23;20793;-64
2024/04/08 08:39:37;;;;;;;10.20;3.90;;;21.60;99.90;;;;;;6228376;23;20570;-64
2024/04/08 08:42:09;;;;;;;6.87;4.73;;;21.70;99.90;;;;;;6227347;23;20607;-63
2024/04/08 08:44:37;;;;;;;7.83;4.10;;;21.80;99.90;;;;;;6227626;22;20526;-66
2024/04/08 08:47:09;;;;;;;8.87;4.10;;;21.70;99.90;;;;;;6227273;23;20471;-67
2024/04/08 08:49:35;;;;;;;8.53;4.97;;;21.60;99.90;;;;;;6228775;23;20525;-66
2024/04/08 08:52:06;;;;;;;11.30;4.10;;;21.50;99.90;;;;;;6228424;23;20898;-67
2024/04/08 08:54:32;;;;;;;11.73;5.10;;;21.40;99.90;;;;;;6227899;22;20596;-66
2024/04/08 08:57:01;;;;;;;9.53;4.70;;;21.30;99.90;;;;;;6227240;23;20480;-68
2024/04/08 08:59:30;;;;;;;12.00;5.30;;;21.20;99.90;;;;;;6225885;23;20513;-63
2024/04/08 09:01:58;;;;;;;8.93;3.90;;;21.20;99.90;;;;;;6227635;23;20457;-67
2024/04/08 09:04:29;;;;;;;7.53;4.00;;;21.20;99.90;;;;;;6228184;22;20492;-65
2024/04/08 09:06:56;;;;;;;9.80;4.77;;;21.20;99.90;;;;;;6228866;23;20960;-67
2024/04/08 09:09:25;;;;;;;5.13;4.07;;;21.60;99.90;;;;;;6229299;23;21079;-66
2024/04/08 09:11:51;;;;;;;9.70;4.63;;;22.60;99.90;;;;;;6229645;23;20466;-66
2024/04/08 09:16:55;;;;;;;16.53;4.50;;;24.00;99.90;;;;;;6325432;22;20537;-66
2024/04/08 09:19:21;;;;;;;7.67;4.27;;;24.50;99.90;;;;;;6324554;22;20467;-66
2024/04/08 09:21:52;;;;;;;6.60;4.67;;;24.70;99.90;;;;;;6325996;22;20892;-67
2024/04/08 09:24:18;;;;;;;12.07;3.97;;;24.60;99.90;;;;;;6325480;22;20466;-66
2024/04/08 09:26:47;;;;;;;6.83;3.90;;;24.40;99.90;;;;;;6325590;22;20812;-65
2024/04/08 09:29:13;;;;;;;9.40;4.00;;;24.30;99.90;;;;;;6325922;22;21026;-65
2024/04/08 09:31:41;;;;;;;12.20;3.90;;;24.30;99.90;;;;;;6325179;22;20516;-65
2024/04/08 09:34:08;;;;;;;5.27;4.40;;;24.40;99.90;;;;;;6325312;22;21018;-65
2024/04/08 09:36:38;;;;;;;12.50;4.97;;;24.30;99.90;;;;;;6325565;22;20536;-64
2024/04/08 09:39:09;;;;;;;7.40;4.70;;;24.10;99.90;;;;;;6325190;22;20991;-65
2024/04/08 09:41:38;;;;;;;7.27;3.77;;;24.10;99.90;;;;;;6325319;22;20830;-64
2024/04/08 09:44:07;;;;;;;7.87;3.83;;;24.10;99.90;;;;;;6324835;22;20519;-62
2024/04/08 09:46:36;;;;;;;5.47;4.10;;;24.30;99.90;;;;;;6325762;22;20950;-64
2024/04/08 09:49:03;;;;;;;6.83;4.00;;;24.40;99.90;;;;;;6325372;22;20807;-68
2024/04/08 09:51:33;;;;;;;8.20;4.93;;;24.70;99.90;;;;;;6326048;22;20504;-66
2024/04/08 09:53:59;;;;;;;5.40;4.33;;;24.90;99.90;;;;;;6325149;22;20482;-65
2024/04/08 09:56:33;;;;;;;4.20;3.67;;;24.90;99.90;;;;;;6325648;22;20460;-66
2024/04/08 09:59:04;;;;;;;8.20;3.93;;;24.70;99.90;;;;;;6325507;22;20524;-64
2024/04/08 10:01:33;;;;;;;6.67;4.10;;;24.50;99.90;;;;;;6325726;22;20589;-65
2024/04/08 10:04:00;;;;;;;12.40;4.90;;;24.40;99.90;;;;;;6323770;22;20529;-65
2024/04/08 10:06:30;;;;;;;4.57;3.47;;;24.70;99.90;;;;;;6325360;22;20512;-66
2024/04/08 10:08:57;;;;;;;6.90;4.80;;;25.30;99.90;;;;;;6324615;22;20973;-65
2024/04/08 10:11:28;;;;;;;13.03;5.43;;;26.00;99.90;;;;;;6323890;22;20939;-65
2024/04/08 10:13:57;;;;;;;4.77;3.77;;;26.90;99.90;;;;;;6324471;22;20527;-65
2024/04/08 10:16:27;;;;;;;4.50;4.10;;;27.50;99.70;;;;;;6324457;22;20521;-66
2024/04/08 10:18:54;;;;;;;5.80;4.33;;;28.20;97.20;;;;;;6325056;22;20509;-65
2024/04/08 10:21:24;;;;;;;10.20;6.23;;;28.80;94.90;;;;;;6325566;22;20511;-66
2024/04/08 10:23:52;;;;;;;7.73;4.30;;;29.40;91.30;;;;;;6324819;22;20798;-65
2024/04/08 10:26:21;;;;;;;4.17;3.77;;;29.80;89.80;;;;;;6324572;22;20470;-66
2024/04/08 10:28:50;;;;;;;5.40;4.40;;;30.10;88.10;;;;;;6323584;22;20594;-64
2024/04/08 10:31:30;;;;;;;4.43;4.00;;;30.40;83.60;;;;;;6324583;22;20450;-67
2024/04/08 10:36:44;;;;;;;8.33;3.80;;;31.10;81.00;;;;;;6276482;22;20567;-67
2024/04/08 10:39:10;;;;;;;4.70;3.80;;;31.00;77.90;;;;;;6275658;22;20838;-61
2024/04/08 10:41:39;;;;;;;5.10;3.53;;;31.00;76.20;;;;;;6275324;22;20507;-62
2024/04/08 10:44:08;;;;;;;5.60;4.43;;;31.10;76.20;;;;;;6275097;22;20785;-60
2024/04/08 10:46:40;;;;;;;9.90;4.27;;;31.20;77.70;;;;;;6276595;22;20463;-59
2024/04/08 10:49:07;;;;;;;5.00;3.70;;;31.10;76.30;;;;;;6276097;22;20949;-61
2024/04/08 10:51:36;;;;;;;5.20;3.80;;;31.00;75.50;;;;;;6274385;22;20778;-63
2024/04/08 10:54:02;;;;;;;5.10;3.37;;;30.90;75.40;;;;;;6275418;22;20519;-61
2024/04/08 10:56:31;;;;;;;7.70;3.77;;;30.60;73.70;;;;;;6277199;22;20813;-62
2024/04/08 10:58:56;;;;;;;6.10;3.83;;;30.20;73.70;;;;;;6278343;22;20464;-61
2024/04/08 11:01:25;;;;;;;5.40;3.40;;;30.00;75.60;;;;;;6278407;22;20511;-63
2024/04/08 11:03:54;;;;;;;7.63;4.23;;;29.90;76.20;;;;;;6277864;22;20779;-62
2024/04/08 11:06:23;;;;;;;6.87;3.50;;;29.70;74.20;;;;;;6278789;22;20455;-61
2024/04/08 11:08:49;;;;;;;15.80;8.30;;;29.40;75.20;;;;;;6279008;22;20602;-61
2024/04/08 11:11:17;;;;;;;6.53;4.67;;;29.20;76.40;;;;;;6278540;22;20472;-64
2024/04/08 11:13:46;;;;;;;6.13;3.57;;;29.30;76.60;;;;;;6278823;22;20521;-61
2024/04/08 11:16:14;;;;;;;4.67;4.10;;;29.30;76.00;;;;;;6278677;22;20463;-62
2024/04/08 11:18:40;;;;;;;5.73;3.83;;;29.20;77.70;;;;;;6279415;22;20467;-62
2024/04/08 11:21:12;;;;;;;6.30;4.90;;;29.20;77.60;;;;;;6278805;22;20552;-61
2024/04/08 11:23:40;;;;;;;10.60;4.50;;;29.00;77.00;;;;;;6278038;22;20467;-62
2024/04/08 11:26:10;;;;;;;7.53;3.97;;;28.90;77.30;;;;;;6279066;22;20462;-61
2024/04/08 11:28:37;;;;;;;5.93;3.97;;;28.70;80.00;;;;;;6278924;22;20567;-60
2024/04/08 11:31:06;;;;;;;9.23;4.07;;;28.70;79.10;;;;;;6278546;22;20511;-59
2024/04/08 11:33:32;;;;;;;5.37;3.50;;;28.60;79.00;;;;;;6278194;22;21016;-62
2024/04/08 11:36:01;;;;;;;8.07;3.77;;;28.40;78.30;;;;;;6278157;22;20516;-64
2024/04/08 11:38:33;;;;;;;7.50;3.90;;;28.40;79.20;;;;;;6278825;22;20474;-62
2024/04/08 11:41:02;;;;;;;5.83;3.93;;;28.40;78.30;;;;;;6278818;22;20911;-61
2024/04/08 11:43:28;;;;;;;7.50;4.20;;;28.40;77.80;;;;;;6277426;22;20977;-58
2024/04/08 11:45:57;;;;;;;7.23;3.67;;;28.40;79.20;;;;;;6278565;22;20580;-62
2024/04/08 11:48:23;;;;;;;10.77;3.80;;;28.40;81.50;;;;;;6278617;22;20792;-59
2024/04/08 11:50:52;;;;;;;4.20;3.83;;;28.40;79.10;;;;;;6278622;22;20470;-62
2024/04/08 11:53:18;;;;;;;4.20;3.13;;;28.30;79.60;;;;;;6278140;22;20222;-59
2024/04/08 11:55:49;;;;;;;6.50;3.77;;;28.20;79.40;;;;;;6277785;22;21038;-61
2024/04/08 11:58:15;;;;;;;11.90;5.07;;;28.20;79.90;;;;;;6278497;22;20469;-60
2024/04/08 12:00:44;;;;;;;5.20;3.70;;;28.30;79.70;;;;;;6278370;22;20471;-60
2024/04/08 12:03:10;;;;;;;13.90;4.80;;;28.00;78.70;;;;;;6278565;22;20461;-58
2024/04/08 12:05:39;;;;;;;5.33;3.77;;;27.80;79.80;;;;;;6278476;22;20539;-65
2024/04/08 12:08:09;;;;;;;4.27;3.87;;;27.90;81.20;;;;;;6278979;22;20512;-60
2024/04/08 12:10:35;;;;;;;5.93;4.07;;;27.90;80.80;;;;;;6279079;22;20469;-61
2024/04/08 12:13:20;;;;;;;19.00;4.60;;;27.90;79.70;;;;;;6278735;22;20518;-60
2024/04/08 12:15:47;;;;;;;5.90;3.77;;;28.00;80.50;;;;;;6278099;22;20469;-60
2024/04/08 12:18:16;;;;;;;6.23;3.73;;;27.80;79.20;;;;;;6278457;22;20469;-63
2024/04/08 12:20:42;;;;;;;5.10;4.07;;;27.80;79.10;;;;;;6278726;22;20465;-63
2024/04/08 12:23:13;;;;;;;5.33;4.13;;;27.80;80.00;;;;;;6278536;22;20506;-63
2024/04/08 12:25:39;;;;;;;10.57;4.67;;;27.90;81.30;;;;;;6276600;22;20489;-61
2024/04/08 12:28:11;;;;;;;5.87;4.03;;;28.00;80.00;;;;;;6278995;22;21056;-63
2024/04/08 12:30:41;;;;;;;8.20;4.17;;;28.10;79.90;;;;;;6278258;22;20517;-60
2024/04/08 12:33:10;;;;;;;14.73;4.60;;;28.10;76.00;;;;;;6277993;22;20782;-61
2024/04/08 12:35:36;;;;;;;11.20;4.17;;;28.10;74.20;;;;;;6277679;22;20790;-63
2024/04/08 12:38:08;;;;;;;10.13;3.50;;;27.90;74.70;;;;;;6277612;22;21121;-60
2024/04/08 12:40:34;;;;;;;5.63;3.67;;;28.00;75.20;;;;;;6277921;22;20535;-62
2024/04/08 12:43:03;;;;;;;4.43;2.87;;;28.20;74.10;;;;;;6278278;22;20967;-63
2024/04/08 12:45:29;;;;;;;14.73;5.40;;;28.30;72.80;;;;;;6277078;22;20475;-61
2024/04/08 12:48:01;;;;;;;20.33;12.13;;;28.30;71.40;;;;;;6277949;22;20949;-59
2024/04/08 12:50:27;;;;;;;8.73;3.57;;;28.30;72.70;;;;;;6277635;22;20514;-61
2024/04/08 12:52:55;;;;;;;10.63;7.67;;;28.20;73.60;;;;;;6276926;22;20519;-61
2024/04/08 12:55:22;;;;;;;10.67;3.77;;;28.10;72.10;;;;;;6277155;22;20846;-61
2024/04/08 12:57:50;;;;;;;9.50;3.60;;;28.20;73.20;;;;;;6277466;22;20514;-63
2024/04/08 13:00:17;;;;;;;6.47;3.40;;;28.20;72.60;;;;;;6277722;22;20458;-64
2024/04/08 13:02:45;;;;;;;6.90;3.80;;;28.30;73.00;;;;;;6277907;22;20516;-63
2024/04/08 13:05:14;;;;;;;8.80;4.23;;;28.40;72.80;;;;;;6276997;22;20478;-64
2024/04/08 13:07:43;;;;;;;12.13;3.33;;;28.40;71.60;;;;;;6277725;22;20979;-63
2024/04/08 13:10:09;;;;;;;6.40;2.90;;;28.40;70.70;;;;;;6277276;22;20461;-63